.
WxDataArchive / Data Records for 2014-02-01
2014-01-31 February 2014 2014-02-02

Data Records for Saturday, 01 February 2014

Time	Temp	Chill	HIndex	Humid	Dewpt	 Wind 	HiWind	WindDir	Rain 	Barom 
-----	----	-----	------	-----	-----	------	------	-------	-----	----- 
00:00	28.1	28.1	28.1	92	26.1	0	2	292	0.00	30.107 
00:05	28.1	28.1	28.1	92	26.1	0	2	292	0.00	30.107 
00:10	28.1	28.1	28.1	92	26.1	0	1	292	0.00	30.107 
00:15	28.1	28.1	28.1	92	26.1	1	2	292	0.00	30.105 
00:20	28.1	28.1	28.1	92	26.1	0	1	292	0.00	30.105 
00:25	27.9	27.9	27.9	92	25.9	0	1	292	0.00	30.105 
00:30	27.9	27.9	27.9	92	25.9	0	2	292	0.00	30.097 
00:35	27.9	27.9	27.9	92	25.9	0	2	292	0.00	30.097 
00:40	27.9	27.9	27.9	92	25.9	0	2	292	0.00	30.097 
00:45	27.9	27.9	27.9	92	25.9	1	2	292	0.00	30.090 
00:50	27.9	27.9	27.9	92	25.9	1	3	292	0.00	30.090 
00:55	27.9	27.9	27.9	92	25.9	0	2	292	0.00	30.090 
01:00	27.9	27.9	27.9	92	25.9	0	2	292	0.00	30.088 
01:05	27.9	27.9	27.9	92	25.9	0	2	292	0.00	30.088 
01:10	27.9	27.9	27.9	92	25.9	0	3	68	0.00	30.088 
01:15	27.9	27.9	27.9	92	25.9	0	2	68	0.00	30.091 
01:20	27.9	27.9	27.9	92	25.9	0	1	68	0.00	30.091 
01:25	27.9	27.9	27.9	92	25.9	0	0	---	0.00	30.091 
01:30	27.9	27.9	27.9	92	25.9	0	1	68	0.00	30.095 
01:35	27.9	27.9	27.9	92	25.9	0	0	---	0.00	30.095 
01:40	27.9	27.9	27.9	92	25.9	0	1	68	0.00	30.095 
01:45	27.9	27.9	27.9	92	25.9	0	1	68	0.00	30.092 
01:50	28.1	28.1	28.1	92	26.1	0	1	68	0.00	30.092 
01:55	28.1	28.1	28.1	92	26.1	0	1	68	0.00	30.092 
02:00	28.1	28.1	28.1	92	26.1	0	1	68	0.00	30.101 
02:05	28.1	28.1	28.1	92	26.1	0	2	68	0.00	30.101 
02:10	28.1	28.1	28.1	92	26.1	0	1	68	0.00	30.101 
02:15	28.1	28.1	28.1	92	26.1	1	3	68	0.00	30.092 
02:20	28.1	28.1	28.1	92	26.1	1	2	68	0.00	30.092 
02:25	28.1	28.1	28.1	92	26.1	1	4	68	0.00	30.092 
02:30	28.1	28.1	28.1	92	26.1	1	4	68	0.00	30.084 
02:35	28.1	28.1	28.1	92	26.1	0	2	68	0.00	30.084 
02:40	28.1	28.1	28.1	92	26.1	1	3	68	0.00	30.084 
02:45	28.1	28.1	28.1	92	26.1	0	2	68	0.00	30.082 
02:50	28.1	28.1	28.1	92	26.1	0	2	68	0.00	30.082 
02:55	28.1	28.1	28.1	92	26.1	1	2	68	0.00	30.082 
03:00	28.1	28.1	28.1	92	26.1	1	3	68	0.00	30.079 
03:05	28.1	28.1	28.1	92	26.1	0	1	68	0.00	30.079 
03:10	28.1	28.1	28.1	92	26.1	1	3	68	0.00	30.079 
03:15	28.1	28.1	28.1	92	26.1	1	4	68	0.00	30.072 
03:20	28.1	28.1	28.1	92	26.1	1	2	68	0.00	30.072 
03:25	28.2	28.2	28.2	93	26.4	1	3	68	0.00	30.072 
03:30	28.2	28.2	28.2	93	26.4	1	4	68	0.00	30.068 
03:35	28.2	28.2	28.2	93	26.4	0	2	68	0.00	30.068 
03:40	28.2	28.2	28.2	93	26.4	0	2	68	0.00	30.068 
03:45	28.2	28.2	28.2	93	26.4	0	1	68	0.00	30.063 
03:50	28.4	28.4	28.4	93	26.6	1	3	68	0.00	30.063 
03:55	28.4	28.4	28.4	93	26.6	0	2	68	0.00	30.063 
04:00	28.4	28.4	28.4	93	26.6	0	2	68	0.00	30.061 
04:05	28.5	28.5	28.5	93	26.7	0	2	68	0.00	30.061 
04:10	28.5	28.5	28.5	93	26.7	0	3	68	0.00	30.061 
04:15	28.7	28.7	28.7	93	26.9	0	2	68	0.00	30.058 
04:20	28.7	28.7	28.7	93	26.9	1	3	68	0.00	30.058 
04:25	28.7	28.7	28.7	93	26.9	1	3	68	0.00	30.058 
04:30	28.7	28.7	28.7	93	26.9	1	4	68	0.00	30.049 
04:35	28.7	28.7	28.7	93	26.9	1	3	90	0.00	30.049 
04:40	28.7	28.7	28.7	93	26.9	1	5	90	0.00	30.049 
04:45	28.8	28.8	28.8	93	27.0	1	3	90	0.00	30.035 
04:50	28.8	28.8	28.8	93	27.0	0	3	90	0.00	30.035 
04:55	28.8	28.8	28.8	93	27.0	0	2	90	0.00	30.035 
05:00	28.8	28.8	28.8	93	27.0	1	3	90	0.00	30.030 
05:05	28.8	28.8	28.8	93	27.0	1	4	90	0.00	30.030 
05:10	28.8	28.8	28.8	93	27.0	1	3	90	0.00	30.030 
05:15	28.8	28.8	28.8	93	27.0	2	4	90	0.00	30.029 
05:20	28.8	28.8	28.8	93	27.0	1	3	90	0.00	30.029 
05:25	28.8	28.8	28.8	93	27.0	1	2	90	0.00	30.029 
05:30	28.8	28.8	28.8	93	27.0	1	5	90	0.00	30.029 
05:35	28.8	28.8	28.8	93	27.0	1	4	90	0.00	30.029 
05:40	28.8	28.8	28.8	93	27.0	2	4	90	0.00	30.029 
05:45	28.8	28.8	28.8	93	27.0	1	4	90	0.00	30.015 
05:50	28.8	28.8	28.8	93	27.0	1	5	90	0.00	30.015 
05:55	29.0	29.0	29.0	93	27.2	1	4	90	0.00	30.015 
06:00	29.0	29.0	29.0	93	27.2	1	4	90	0.00	30.014 
06:05	29.0	29.0	29.0	93	27.2	1	4	90	0.00	30.014 
06:10	29.0	29.0	29.0	93	27.2	1	3	90	0.00	30.014 
06:15	29.1	29.1	29.1	93	27.3	2	4	90	0.00	30.007 
06:20	29.1	29.1	29.1	93	27.3	2	5	90	0.00	30.007 
06:25	29.1	29.1	29.1	93	27.3	2	4	112	0.00	30.007 
06:30	29.1	29.1	29.1	93	27.3	2	5	90	0.00	29.997 
06:35	29.1	29.1	29.1	93	27.3	2	4	90	0.00	29.997 
06:40	29.1	29.1	29.1	93	27.3	2	4	112	0.00	29.997 
06:45	29.3	29.3	29.3	93	27.5	2	4	112	0.00	29.995 
06:50	29.3	29.3	29.3	93	27.5	2	5	90	0.00	29.995 
06:55	29.3	29.3	29.3	93	27.5	2	5	112	0.00	29.995 
07:00	29.4	29.4	29.4	93	27.6	3	7	112	0.00	29.984 
07:05	29.4	29.4	29.4	93	27.6	2	5	112	0.00	29.984 
07:10	29.5	29.5	29.5	93	27.7	2	4	90	0.00	29.984 
07:15	29.7	29.7	29.7	93	27.9	2	5	112	0.00	29.982 
07:20	29.8	29.8	29.8	93	28.0	1	4	90	0.00	29.982 
07:25	29.8	29.8	29.8	93	28.0	2	5	90	0.00	29.982 
07:30	30.0	30.0	30.0	94	28.5	3	7	90	0.00	29.991 
07:35	30.0	30.0	30.0	94	28.5	2	6	90	0.00	29.991 
07:40	30.0	30.0	30.0	94	28.5	2	4	90	0.00	29.991 
07:45	30.0	30.0	30.0	94	28.5	1	4	90	0.00	29.983 
07:50	30.0	30.0	30.0	94	28.5	2	5	90	0.00	29.983 
07:55	30.0	30.0	30.0	94	28.5	2	4	90	0.00	29.983 
08:00	30.1	30.1	30.1	94	28.6	2	5	90	0.00	29.979 
08:05	30.1	30.1	30.1	94	28.6	2	5	112	0.00	29.979 
08:10	30.1	30.1	30.1	94	28.6	2	4	112	0.00	29.979 
08:15	30.1	30.1	30.1	94	28.6	2	5	90	0.00	29.966 
08:20	30.3	30.3	30.3	94	28.8	2	5	90	0.00	29.966 
08:25	30.3	30.3	30.3	94	28.8	2	4	90	0.00	29.966 
08:30	30.4	30.4	30.4	94	28.9	2	5	90	0.00	29.965 
08:35	30.4	30.4	30.4	94	28.9	3	5	90	0.00	29.965 
08:40	30.6	30.6	30.6	94	29.1	2	4	90	0.00	29.965 
08:45	30.6	30.6	30.6	94	29.1	2	4	90	0.00	29.953 
08:50	30.7	30.7	30.7	94	29.2	2	5	90	0.00	29.953 
08:55	30.7	30.7	30.7	94	29.2	3	5	112	0.00	29.953 
09:00	30.9	30.9	30.9	94	29.4	2	5	90	0.00	29.945 
09:05	31.0	31.0	31.0	94	29.5	2	5	112	0.00	29.945 
09:10	31.2	31.2	31.2	94	29.7	1	5	90	0.00	29.945 
09:15	31.3	31.3	31.3	94	29.8	1	6	68	0.00	29.943 
09:20	31.3	31.3	31.3	94	29.8	1	3	68	0.00	29.943 
09:25	31.5	31.5	31.5	95	30.2	2	4	90	0.00	29.943 
09:30	31.5	31.5	31.5	95	30.2	0	1	90	0.00	29.936 
09:35	31.6	31.6	31.6	95	30.3	1	3	90	0.00	29.936 
09:40	31.8	31.8	31.8	95	30.5	0	2	90	0.00	29.936 
09:45	31.8	31.8	31.8	95	30.5	0	1	90	0.00	29.932 
09:50	31.9	31.9	31.9	95	30.6	0	2	90	0.00	29.932 
09:55	31.9	31.9	31.9	95	30.6	0	2	90	0.00	29.932 
10:00	32.1	32.1	32.1	95	30.8	1	3	90	0.00	29.931 
10:05	32.1	32.1	32.1	95	30.8	1	3	90	0.00	29.931 
10:10	32.2	32.2	32.2	95	30.9	1	3	90	0.00	29.931 
10:15	32.2	32.2	32.2	95	30.9	1	3	90	0.00	29.932 
10:20	32.4	32.4	32.4	95	31.1	0	1	90	0.00	29.932 
10:25	32.5	32.5	32.5	95	31.2	0	2	90	0.00	29.932 
10:30	32.5	32.5	32.5	95	31.2	0	1	90	0.00	29.944 
10:35	32.7	32.7	32.7	95	31.4	0	2	90	0.00	29.944 
10:40	32.8	32.8	32.8	95	31.5	0	2	90	0.00	29.944 
10:45	32.9	32.9	32.9	95	31.6	0	1	90	0.00	29.936 
10:50	32.9	32.9	32.9	95	31.6	0	1	90	0.00	29.936 
10:55	33.1	33.1	33.1	95	31.8	0	1	90	0.00	29.936 
11:00	33.2	33.2	33.2	95	31.9	0	1	90	0.00	29.927 
11:05	33.2	33.2	33.2	95	31.9	0	2	90	0.00	29.927 
11:10	33.5	33.5	33.5	95	32.2	0	1	90	0.00	29.927 
11:15	33.5	33.5	33.5	95	32.2	0	1	90	0.00	29.915 
11:20	33.7	33.7	33.7	95	32.4	0	1	90	0.00	29.915 
11:25	33.7	33.7	33.7	95	32.4	0	2	90	0.00	29.915 
11:30	33.5	33.5	33.5	95	32.2	2	4	90	0.00	29.896 
11:35	33.5	33.5	33.5	95	32.2	1	5	90	0.00	29.896 
11:40	33.5	33.5	33.5	95	32.2	1	3	90	0.00	29.896 
11:45	33.7	33.7	33.7	95	32.4	0	2	90	0.00	29.884 
11:50	33.7	33.7	33.7	95	32.4	1	4	90	0.00	29.884 
11:55	33.8	33.8	33.8	95	32.5	0	2	90	0.00	29.884 
12:00	33.8	33.8	33.8	95	32.5	0	2	90	0.00	29.879 
12:05	33.8	33.8	33.8	95	32.5	0	2	90	0.00	29.879 
12:10	33.8	33.8	33.8	95	32.5	0	3	90	0.00	29.879 
12:15	33.8	33.8	33.8	95	32.5	0	2	90	0.00	29.864 
12:20	33.8	33.8	33.8	95	32.5	1	3	90	0.00	29.864 
12:25	33.8	33.8	33.8	95	32.5	0	4	90	0.00	29.864 
12:30	34.0	34.0	34.0	95	32.7	0	2	90	0.00	29.838 
12:35	34.1	34.1	34.1	95	32.8	0	1	90	0.00	29.838 
12:40	34.1	34.1	34.1	95	32.8	0	2	90	0.00	29.838 
12:45	34.1	34.1	34.1	95	32.8	0	3	90	0.00	29.838 
12:50	34.3	34.3	34.3	95	33.0	0	3	112	0.00	29.838 
12:55	34.3	34.3	34.3	95	33.0	0	2	112	0.00	29.838 
13:00	34.4	34.4	34.4	95	33.1	0	1	112	0.00	29.827 
13:05	34.4	34.4	34.4	95	33.1	0	2	112	0.00	29.827 
13:10	34.6	34.6	34.6	95	33.3	0	3	112	0.00	29.827 
13:15	34.7	34.7	34.7	95	33.4	0	1	112	0.00	29.823 
13:20	34.9	34.9	34.9	95	33.6	0	2	112	0.00	29.823 
13:25	35.0	35.0	35.0	95	33.7	0	2	112	0.00	29.823 
13:30	35.2	35.2	35.2	95	33.9	0	2	112	0.00	29.818 
13:35	35.3	35.3	35.3	95	34.0	0	1	112	0.00	29.818 
13:40	35.5	35.5	35.5	95	34.2	0	1	112	0.00	29.818 
13:45	35.5	35.5	35.5	95	34.2	0	1	112	0.00	29.819 
13:50	35.5	35.5	35.5	95	34.2	0	1	112	0.00	29.819 
13:55	35.6	35.6	35.6	95	34.3	0	1	112	0.01	29.819 
14:00	35.6	35.6	35.6	95	34.3	0	2	112	0.00	29.814 
14:05	35.6	35.6	35.6	95	34.3	0	1	112	0.00	29.814 
14:10	35.8	35.8	35.8	95	34.5	0	1	112	0.00	29.814 
14:15	35.9	35.9	35.9	95	34.6	0	1	112	0.00	29.817 
14:20	36.0	36.0	36.0	95	34.7	0	1	112	0.00	29.817 
14:25	36.0	36.0	36.0	95	34.7	0	1	112	0.00	29.817 
14:30	36.2	36.2	36.2	96	35.2	0	1	112	0.00	29.802 
14:35	36.3	36.3	36.3	96	35.3	0	3	248	0.00	29.802 
14:40	36.5	36.5	36.5	96	35.5	0	1	248	0.01	29.802 
14:45	36.5	36.5	36.5	96	35.5	0	2	248	0.24	29.801 
14:50	36.5	36.5	36.5	95	35.2	0	1	248	0.05	29.801 
14:55	36.6	36.6	36.6	96	35.6	0	1	248	0.01	29.801 
15:00	36.9	36.9	36.9	96	35.9	0	3	248	0.01	29.804 
15:05	36.9	36.9	36.9	96	35.9	0	2	248	0.02	29.804 
15:10	36.9	36.9	36.9	96	35.9	0	2	248	0.01	29.804 
15:15	36.9	36.9	36.9	96	35.9	0	2	315	0.01	29.799 
15:20	36.9	36.9	36.9	96	35.9	0	3	202	0.02	29.799 
15:25	37.0	37.0	37.0	96	36.0	0	2	90	0.01	29.799 
15:30	37.0	37.0	37.0	96	36.0	0	1	90	0.01	29.787 
15:35	37.2	37.2	37.2	96	36.2	0	1	112	0.01	29.787 
15:40	37.3	37.3	37.3	96	36.3	0	3	315	0.01	29.787 
15:45	37.2	37.2	37.2	96	36.2	0	3	315	0.01	29.800 
15:50	37.3	37.3	37.3	96	36.3	0	2	202	0.00	29.800 
15:55	37.3	37.3	37.3	96	36.3	0	2	202	0.01	29.800 
16:00	37.2	37.2	37.2	96	36.2	0	1	202	0.01	29.805 
16:05	37.2	37.2	37.2	96	36.2	0	1	202	0.00	29.805 
16:10	37.2	37.2	37.2	96	36.2	0	2	202	0.01	29.805 
16:15	37.2	37.2	37.2	96	36.2	0	1	202	0.01	29.811 
16:20	37.2	37.2	37.2	96	36.2	0	2	248	0.01	29.811 
16:25	37.2	37.2	37.2	96	36.2	0	2	248	0.00	29.811 
16:30	37.3	37.3	37.3	96	36.3	0	3	248	0.01	29.815 
16:35	37.3	37.3	37.3	96	36.3	0	2	248	0.01	29.815 
16:40	37.3	37.3	37.3	96	36.3	0	1	248	0.01	29.815 
16:45	37.3	37.3	37.3	96	36.3	0	3	248	0.01	29.819 
16:50	37.3	37.3	37.3	96	36.3	0	2	248	0.00	29.819 
16:55	37.3	37.3	37.3	96	36.3	0	2	248	0.01	29.819 
17:00	37.3	37.3	37.3	96	36.3	0	2	248	0.01	29.825 
17:05	37.5	37.5	37.5	96	36.5	0	3	248	0.01	29.825 
17:10	37.5	37.5	37.5	96	36.5	0	2	248	0.01	29.825 
17:15	37.5	37.5	37.5	96	36.5	0	2	248	0.01	29.816 
17:20	37.5	37.5	37.5	96	36.5	0	1	248	0.01	29.816 
17:25	37.5	37.5	37.5	96	36.5	0	1	248	0.01	29.816 
17:30	37.5	37.5	37.5	96	36.5	0	2	248	0.01	29.819 
17:35	37.5	37.5	37.5	96	36.5	0	2	248	0.01	29.819 
17:40	37.5	37.5	37.5	96	36.5	0	1	248	0.01	29.819 
17:45	37.5	37.5	37.5	96	36.5	0	1	248	0.01	29.827 
17:50	37.5	37.5	37.5	96	36.5	0	1	248	0.00	29.827 
17:55	37.3	37.3	37.3	96	36.3	0	1	248	0.01	29.827 
18:00	37.3	37.3	37.3	96	36.3	0	1	248	0.01	29.832 
18:05	37.3	37.3	37.3	96	36.3	0	1	248	0.00	29.832 
18:10	37.5	37.5	37.5	96	36.5	0	2	248	0.01	29.832 
18:15	37.5	37.5	37.5	96	36.5	0	2	248	0.01	29.838 
18:20	37.5	37.5	37.5	96	36.5	0	1	248	0.00	29.838 
18:25	37.5	37.5	37.5	96	36.5	0	2	248	0.01	29.838 
18:30	37.3	37.3	37.3	96	36.3	0	0	---	0.00	29.846 
18:35	37.3	37.3	37.3	96	36.3	0	1	248	0.00	29.846 
18:40	37.3	37.3	37.3	96	36.3	0	0	---	0.00	29.846 
18:45	37.2	37.2	37.2	96	36.2	0	3	248	0.01	29.864 
18:50	37.2	37.2	37.2	96	36.2	0	2	248	0.01	29.864 
18:55	37.2	37.2	37.2	96	36.2	1	2	248	0.01	29.864 
19:00	37.0	37.0	37.0	96	36.0	0	2	248	0.00	29.872 
19:05	36.9	36.9	36.9	96	35.9	0	2	248	0.01	29.872 
19:10	36.8	36.8	36.8	96	35.8	0	2	248	0.01	29.872 
19:15	36.6	36.6	36.6	96	35.6	0	2	248	0.00	29.871 
19:20	36.5	36.5	36.5	96	35.5	0	3	248	0.01	29.871 
19:25	36.5	36.5	36.5	96	35.5	1	3	248	0.00	29.871 
19:30	36.0	36.0	36.0	96	35.0	1	5	315	0.01	29.877 
19:35	35.8	35.8	35.8	96	34.8	1	3	270	0.01	29.877 
19:40	35.5	35.5	35.5	96	34.5	1	3	270	0.00	29.877 
19:45	35.2	35.2	35.2	96	34.2	1	3	270	0.01	29.888 
19:50	34.9	34.9	34.9	96	33.9	1	3	292	0.00	29.888 
19:55	34.6	34.6	34.6	96	33.6	1	3	292	0.00	29.888 
20:00	34.1	34.1	34.1	96	33.1	0	2	315	0.00	29.897 
20:05	33.8	33.8	33.8	95	32.5	0	1	315	0.00	29.897 
20:10	33.5	33.5	33.5	95	32.2	0	2	315	0.00	29.897 
20:15	33.4	33.4	33.4	95	32.1	0	2	315	0.01	29.904 
20:20	33.2	33.2	33.2	96	32.2	0	2	315	0.00	29.904 
20:25	33.1	33.1	33.1	96	32.1	1	3	292	0.00	29.904 
20:30	32.9	32.9	32.9	96	31.9	0	2	292	0.00	29.909 
20:35	32.9	32.9	32.9	96	31.9	0	2	292	0.00	29.909 
20:40	32.8	32.8	32.8	95	31.5	0	1	292	0.00	29.909 
20:45	32.7	32.7	32.7	96	31.7	0	1	292	0.00	29.914 
20:50	32.7	32.7	32.7	95	31.4	0	2	292	0.00	29.914 
20:55	32.5	32.5	32.5	96	31.5	0	1	292	0.00	29.914 
21:00	32.5	32.5	32.5	95	31.2	0	2	292	0.00	29.924 
21:05	32.4	32.4	32.4	95	31.1	0	4	338	0.00	29.924 
21:10	32.4	32.4	32.4	95	31.1	1	5	270	0.00	29.924 
21:15	32.2	32.2	32.2	96	31.2	1	3	315	0.00	29.928 
21:20	32.1	32.1	32.1	96	31.1	1	3	270	0.00	29.928 
21:25	31.9	31.9	31.9	96	30.9	0	2	270	0.00	29.928 
21:30	31.9	31.9	31.9	96	30.9	0	3	0	0.00	29.938 
21:35	31.9	31.9	31.9	96	30.9	0	1	0	0.00	29.938 
21:40	31.9	31.9	31.9	96	30.9	0	1	0	0.00	29.938 
21:45	31.9	31.9	31.9	95	30.6	0	3	0	0.00	29.947 
21:50	31.8	31.8	31.8	96	30.8	0	2	338	0.00	29.947 
21:55	31.6	31.6	31.6	95	30.3	1	3	315	0.00	29.947 
22:00	31.5	31.5	31.5	95	30.2	0	2	315	0.00	29.957 
22:05	31.5	31.5	31.5	95	30.2	0	2	292	0.00	29.957 
22:10	31.3	31.3	31.3	95	30.0	0	3	270	0.00	29.957 
22:15	31.2	31.2	31.2	95	29.9	1	3	270	0.00	29.959 
22:20	31.0	31.0	31.0	95	29.7	1	2	270	0.00	29.959 
22:25	30.9	30.9	30.9	95	29.6	1	3	270	0.00	29.959 
22:30	30.9	30.9	30.9	95	29.6	0	2	270	0.00	29.964 
22:35	30.9	30.9	30.9	95	29.6	0	2	270	0.00	29.964 
22:40	30.7	30.7	30.7	95	29.4	0	1	270	0.00	29.964 
22:45	30.7	30.7	30.7	95	29.4	1	3	292	0.00	29.961 
22:50	30.6	30.6	30.6	95	29.3	0	2	292	0.00	29.961 
22:55	30.6	30.6	30.6	95	29.3	0	1	292	0.00	29.961 
23:00	30.6	30.6	30.6	95	29.3	0	1	292	0.00	29.963 
23:05	30.6	30.6	30.6	95	29.3	0	1	292	0.00	29.963 
23:10	30.6	30.6	30.6	95	29.3	0	1	292	0.00	29.963 
23:15	30.4	30.4	30.4	95	29.1	0	2	292	0.00	29.974 
23:20	30.4	30.4	30.4	95	29.1	0	1	292	0.00	29.974 
23:25	30.4	30.4	30.4	95	29.1	0	1	292	0.00	29.974 
23:30	30.4	30.4	30.4	95	29.1	0	1	292	0.00	29.977 
23:35	30.3	30.3	30.3	95	29.0	0	3	292	0.00	29.977 
23:40	30.3	30.3	30.3	95	29.0	0	1	292	0.00	29.977 
23:45	30.3	30.3	30.3	95	29.0	0	1	292	0.00	29.989 
23:50	30.3	30.3	30.3	95	29.0	0	2	292	0.00	29.989 
23:55	30.1	30.1	30.1	95	28.8	0	2	292	0.00	29.989 

CoCoRaHS
IN-AL-39
A2 Web Hosting
Creative Commons License
GoDaddy
search engine by freefind advanced

loaded 2018-11-17 22:38:10 • last modified 2010-11-18 10:43:29
Privacy PolicyDisclaimer
• wx.awcolley.com is powered by PmWiki v.2002016 •
• all content (unless otherwise noted) © 2018 A W Colley